Time;durP1;ratioP1;P1;durP2;ratioP2;P2;SDS_P1;SDS_P2;PMS_P1;PMS_P2;Temp;Humidity;BMP_temperature;BMP_pressure;BME280_temperature;BME280_humidity;BME280_pressure;Samples;Min_cycle;Max_cycle;Signal;HPM_P1;HPM_P2
2022/05/09 00:02:09;;;;;;;18.52;9.10;;;10.50;96.00;;;;;;5072085;28;20523;-65
2022/05/09 00:04:35;;;;;;;20.10;9.43;;;10.50;96.10;;;;;;5071818;28;20024;-64
2022/05/09 00:07:01;;;;;;;22.05;9.70;;;10.50;96.40;;;;;;5071442;28;20179;-65
2022/05/09 00:09:26;;;;;;;18.52;9.40;;;10.50;96.60;;;;;;5071512;28;20028;-65
2022/05/09 00:11:52;;;;;;;20.73;9.30;;;10.50;97.20;;;;;;5072008;28;20116;-65
2022/05/09 00:14:18;;;;;;;18.88;8.48;;;10.50;97.50;;;;;;5071260;28;20025;-65
2022/05/09 00:16:43;;;;;;;20.30;8.90;;;10.40;97.80;;;;;;5071516;28;20024;-65
2022/05/09 00:19:11;;;;;;;19.15;9.52;;;10.40;97.90;;;;;;5072243;28;20020;-65
2022/05/09 00:21:40;;;;;;;17.92;9.02;;;10.40;98.20;;;;;;5072193;28;20103;-65
2022/05/09 00:24:08;;;;;;;17.15;8.65;;;;;;;;;;5054051;28;20372;-68
2022/05/09 00:29:10;;;;;;;17.70;8.90;;;;;;;;;;5086783;22;20416;-67
2022/05/09 00:31:36;;;;;;;22.40;8.80;;;10.30;98.50;;;;;;5072762;28;20089;-67
2022/05/09 00:34:03;;;;;;;20.27;9.02;;;10.20;99.80;;;;;;5072390;28;20106;-65
2022/05/09 00:36:28;;;;;;;21.17;10.20;;;10.10;99.90;;;;;;5072194;28;20031;-66
2022/05/09 00:38:54;;;;;;;18.67;9.75;;;10.00;99.90;;;;;;5072588;28;20016;-66
2022/05/09 00:41:31;;;;;;;18.23;9.43;;;10.10;99.90;;;;;;5092918;28;20379;-66
2022/05/09 00:43:58;;;;;;;22.80;10.45;;;10.10;99.90;;;;;;5074841;28;20040;-67
2022/05/09 00:46:25;;;;;;;19.13;9.25;;;10.10;99.90;;;;;;5074979;28;20053;-67
2022/05/09 00:48:51;;;;;;;19.80;9.45;;;10.10;99.90;;;;;;5074794;28;20031;-65
2022/05/09 00:51:23;;;;;;;21.05;8.90;;;10.10;99.90;;;;;;5075037;28;20028;-67
2022/05/09 00:53:51;;;;;;;17.17;9.13;;;10.00;99.90;;;;;;5092738;28;20028;-68
2022/05/09 00:56:25;;;;;;;20.25;9.10;;;10.00;99.90;;;;;;5092716;28;20095;-67
2022/05/09 00:59:02;;;;;;;19.05;9.07;;;9.90;99.90;;;;;;5092868;28;20103;-68
2022/05/09 01:01:28;;;;;;;18.55;8.57;;;9.80;99.90;;;;;;5075052;28;20480;-67
2022/05/09 01:04:08;;;;;;;18.35;9.05;;;9.80;99.90;;;;;;5074798;28;20036;-67
2022/05/09 01:06:34;;;;;;;18.60;9.80;;;9.80;99.90;;;;;;5093335;28;20050;-66
2022/05/09 01:08:59;;;;;;;19.58;9.43;;;9.70;99.90;;;;;;5093079;28;20388;-67
2022/05/09 01:11:27;;;;;;;19.80;10.10;;;9.80;99.90;;;;;;5077279;28;20024;-64
2022/05/09 01:14:08;;;;;;;53.60;33.75;;;9.70;99.90;;;;;;5097423;28;20036;-64
2022/05/09 01:16:34;;;;;;;22.95;11.45;;;9.70;99.90;;;;;;5095003;28;20102;-68
2022/05/09 01:19:17;;;;;;;25.27;9.95;;;9.70;99.90;;;;;;5094671;28;20020;-67
2022/05/09 01:21:43;;;;;;;20.33;9.43;;;9.60;99.90;;;;;;5096418;28;20024;-67
2022/05/09 01:24:21;;;;;;;20.25;9.38;;;9.60;99.90;;;;;;5096409;28;20396;-67
2022/05/09 01:26:47;;;;;;;18.75;9.43;;;9.60;99.90;;;;;;5096451;28;20115;-66
2022/05/09 01:29:35;;;;;;;20.77;8.55;;;9.50;99.90;;;;;;5096254;28;20063;-67
2022/05/09 01:32:02;;;;;;;20.15;10.30;;;9.50;99.90;;;;;;5078403;28;20035;-66
2022/05/09 01:34:30;;;;;;;18.25;9.18;;;9.50;99.90;;;;;;5095942;28;20024;-67
2022/05/09 01:37:01;;;;;;;21.00;9.25;;;9.50;99.90;;;;;;5096217;28;20111;-67
2022/05/09 01:39:26;;;;;;;19.17;9.20;;;9.50;99.90;;;;;;5096290;28;20026;-67
2022/05/09 01:41:52;;;;;;;18.10;8.75;;;9.40;99.90;;;;;;5096226;28;20443;-67
2022/05/09 01:44:18;;;;;;;19.33;9.23;;;9.40;99.90;;;;;;5096494;28;20108;-67
2022/05/09 01:49:31;;;;;;;20.88;9.88;;;9.40;99.90;;;;;;5096234;28;20063;-67
2022/05/09 01:52:03;;;;;;;21.35;9.35;;;9.40;99.90;;;;;;5078040;28;20123;-67
2022/05/09 01:54:29;;;;;;;20.95;10.23;;;9.40;99.90;;;;;;5077731;28;20438;-67
2022/05/09 01:56:55;;;;;;;17.17;9.30;;;9.40;99.90;;;;;;5077660;28;20020;-67
2022/05/09 01:59:21;;;;;;;17.85;9.02;;;9.30;99.90;;;;;;5095862;28;20016;-67
2022/05/09 02:01:54;;;;;;;18.63;9.30;;;9.30;99.90;;;;;;5095921;28;20093;-67
2022/05/09 02:04:20;;;;;;;17.17;8.50;;;9.30;99.90;;;;;;5077588;28;20110;-66
2022/05/09 02:06:46;;;;;;;19.58;8.77;;;9.20;99.90;;;;;;5095662;28;20434;-66
2022/05/09 02:09:12;;;;;;;19.70;8.65;;;9.20;99.90;;;;;;5095909;28;20020;-67
2022/05/09 02:11:38;;;;;;;17.35;9.10;;;9.20;99.90;;;;;;5095790;28;20028;-67
2022/05/09 02:14:04;;;;;;;18.17;9.50;;;9.10;99.90;;;;;;5077325;28;20115;-66
2022/05/09 02:16:30;;;;;;;17.77;9.07;;;9.10;99.90;;;;;;5095526;28;20066;-66
2022/05/09 02:18:56;;;;;;;18.52;9.10;;;9.10;99.90;;;;;;5095196;28;20035;-66
2022/05/09 02:21:21;;;;;;;21.75;9.05;;;9.10;99.90;;;;;;5077193;28;20035;-67
2022/05/09 02:23:47;;;;;;;19.27;9.43;;;9.10;99.90;;;;;;5095405;28;20028;-66
2022/05/09 02:26:13;;;;;;;19.08;9.10;;;9.00;99.90;;;;;;5076942;28;20020;-66
2022/05/09 02:28:39;;;;;;;18.33;8.55;;;9.00;99.90;;;;;;5076931;28;20494;-67
2022/05/09 02:31:05;;;;;;;27.70;9.63;;;9.00;99.90;;;;;;5076615;28;20059;-65
2022/05/09 02:33:31;;;;;;;20.83;9.30;;;9.00;99.90;;;;;;5076932;28;20029;-66
2022/05/09 02:35:57;;;;;;;21.25;9.40;;;9.00;99.90;;;;;;5094796;28;20027;-67
2022/05/09 02:38:28;;;;;;;24.00;9.07;;;8.90;99.90;;;;;;5094781;28;20058;-67
2022/05/09 02:40:54;;;;;;;21.02;9.48;;;8.90;99.90;;;;;;5094630;28;20043;-66
2022/05/09 02:43:19;;;;;;;17.33;8.70;;;8.90;99.90;;;;;;5076487;28;20511;-68
2022/05/09 02:45:45;;;;;;;22.13;9.75;;;8.90;99.90;;;;;;5094912;28;20032;-67
2022/05/09 02:48:11;;;;;;;21.02;9.07;;;8.90;99.90;;;;;;5094696;28;20066;-67
2022/05/09 02:50:37;;;;;;;18.30;9.13;;;8.80;99.90;;;;;;5076447;28;20063;-67
2022/05/09 02:53:03;;;;;;;20.60;9.13;;;8.80;99.90;;;;;;5094789;28;20016;-66
2022/05/09 02:55:31;;;;;;;27.00;11.18;;;8.80;99.90;;;;;;5094199;28;20036;-68
2022/05/09 02:57:57;;;;;;;20.27;10.05;;;8.80;99.90;;;;;;5094642;28;20038;-67
2022/05/09 03:00:25;;;;;;;18.75;9.32;;;8.70;99.90;;;;;;5094368;28;20377;-68
2022/05/09 03:05:39;;;;;;;21.38;9.82;;;8.70;99.90;;;;;;5094917;28;20305;-68
2022/05/09 03:08:05;;;;;;;18.63;9.50;;;8.70;99.90;;;;;;5094506;28;20031;-67
2022/05/09 03:10:31;;;;;;;18.27;10.25;;;8.70;99.90;;;;;;5094206;28;20088;-67
2022/05/09 03:13:01;;;;;;;20.13;9.85;;;8.70;99.90;;;;;;5094639;28;20115;-67
2022/05/09 03:15:34;;;;;;;18.02;8.88;;;8.60;99.90;;;;;;5094212;28;20107;-67
2022/05/09 03:17:59;;;;;;;20.30;9.20;;;8.60;99.90;;;;;;5093973;28;20024;-67
2022/05/09 03:20:25;;;;;;;19.70;9.07;;;8.60;99.90;;;;;;5090632;28;20068;-67
2022/05/09 03:22:51;;;;;;;19.30;9.38;;;8.60;99.90;;;;;;5094064;28;20027;-67
2022/05/09 03:25:17;;;;;;;39.58;24.23;;;8.60;99.90;;;;;;5093808;28;20020;-66
2022/05/09 03:27:43;;;;;;;35.40;22.27;;;8.50;99.90;;;;;;5093732;28;20032;-66
2022/05/09 03:30:10;;;;;;;21.92;10.48;;;8.50;99.90;;;;;;5093904;28;20032;-65
2022/05/09 03:32:35;;;;;;;20.25;9.15;;;8.50;99.90;;;;;;5093640;28;20480;-66
2022/05/09 03:35:03;;;;;;;21.58;9.88;;;8.50;99.90;;;;;;5093366;28;20028;-67
2022/05/09 03:37:30;;;;;;;21.73;9.48;;;8.50;99.90;;;;;;5093570;28;20152;-65
2022/05/09 03:39:56;;;;;;;20.42;9.30;;;8.50;99.90;;;;;;5093477;28;20028;-65
2022/05/09 03:42:21;;;;;;;21.38;9.80;;;8.40;99.90;;;;;;5074345;28;20028;-65
2022/05/09 03:44:47;;;;;;;19.83;9.13;;;8.40;99.90;;;;;;5093470;28;20027;-66
2022/05/09 03:47:13;;;;;;;16.63;9.75;;;8.40;99.90;;;;;;5093359;28;20051;-65
2022/05/09 03:49:38;;;;;;;27.80;12.02;;;8.40;99.90;;;;;;5068780;28;20435;-65
2022/05/09 03:52:04;;;;;;;22.98;10.93;;;8.50;99.90;;;;;;5093300;28;20028;-66
2022/05/09 03:54:30;;;;;;;18.23;10.23;;;8.50;99.90;;;;;;5093176;28;20025;-66
2022/05/09 03:56:56;;;;;;;23.10;10.40;;;8.50;99.90;;;;;;5093367;28;20028;-66
2022/05/09 03:59:21;;;;;;;23.70;10.35;;;8.50;99.90;;;;;;5093207;28;20023;-66
2022/05/09 04:01:47;;;;;;;20.65;9.95;;;8.50;99.90;;;;;;5093132;28;20020;-66
2022/05/09 04:04:14;;;;;;;18.92;10.25;;;8.50;99.90;;;;;;5092889;28;20388;-66
2022/05/09 04:06:39;;;;;;;20.95;9.45;;;8.50;99.90;;;;;;5093223;28;20028;-64
2022/05/09 04:09:05;;;;;;;22.67;10.48;;;8.50;99.90;;;;;;5093114;28;20066;-66
2022/05/09 04:11:31;;;;;;;25.50;10.70;;;8.50;99.90;;;;;;5074872;28;20122;-66
2022/05/09 04:13:57;;;;;;;21.75;9.95;;;8.60;99.90;;;;;;5093052;28;20035;-67
2022/05/09 04:19:07;;;;;;;21.08;10.20;;;8.60;99.90;;;;;;5093220;28;20047;-68
2022/05/09 04:21:33;;;;;;;20.30;10.88;;;8.60;99.90;;;;;;5074890;28;20024;-68
2022/05/09 04:23:58;;;;;;;21.20;10.90;;;8.60;99.90;;;;;;5092811;28;20039;-68
2022/05/09 04:26:31;;;;;;;20.45;10.32;;;8.60;99.90;;;;;;5074971;28;20035;-68
2022/05/09 04:28:57;;;;;;;19.20;10.45;;;8.70;99.90;;;;;;5074482;28;20055;-68
2022/05/09 04:31:23;;;;;;;24.00;10.68;;;8.70;99.90;;;;;;5092476;28;20444;-68
2022/05/09 04:33:49;;;;;;;21.55;10.63;;;8.80;99.90;;;;;;5074395;28;20055;-67
2022/05/09 04:36:15;;;;;;;21.23;11.13;;;8.90;99.90;;;;;;5092544;28;20020;-67
2022/05/09 04:38:43;;;;;;;72.72;50.90;;;8.90;99.90;;;;;;5092509;28;20016;-64
2022/05/09 04:41:10;;;;;;;60.23;36.13;;;9.00;99.90;;;;;;5074128;28;20111;-61
2022/05/09 04:43:37;;;;;;;25.33;13.38;;;9.10;99.90;;;;;;5092531;28;20024;-63
2022/05/09 04:46:03;;;;;;;24.77;12.38;;;9.10;99.90;;;;;;5073547;28;20016;-66
2022/05/09 04:48:30;;;;;;;22.63;12.55;;;9.20;99.90;;;;;;5092484;28;20026;-67
2022/05/09 04:50:56;;;;;;;22.38;11.23;;;9.20;99.90;;;;;;5092102;28;20056;-68
2022/05/09 04:53:22;;;;;;;20.48;10.88;;;9.30;99.90;;;;;;5092145;28;20020;-67
2022/05/09 04:55:48;;;;;;;21.77;11.13;;;9.40;99.90;;;;;;5092532;28;20016;-68
2022/05/09 04:58:16;;;;;;;22.60;11.82;;;9.40;99.90;;;;;;5074170;28;20020;-67
2022/05/09 05:00:42;;;;;;;21.67;11.63;;;9.50;99.90;;;;;;5078118;28;20025;-67
2022/05/09 05:03:08;;;;;;;21.08;11.15;;;9.50;99.90;;;;;;5074684;28;20441;-66
2022/05/09 05:05:34;;;;;;;27.02;11.40;;;9.60;99.90;;;;;;5079970;28;20099;-68
2022/05/09 05:08:00;;;;;;;22.02;11.10;;;9.60;99.90;;;;;;5083497;28;20017;-68
2022/05/09 05:10:28;;;;;;;18.98;11.05;;;9.70;99.90;;;;;;5063376;28;20123;-68
2022/05/09 05:12:53;;;;;;;26.45;11.77;;;9.80;99.90;;;;;;5091133;28;20028;-67
2022/05/09 05:15:19;;;;;;;22.33;10.35;;;9.80;99.90;;;;;;5073602;28;20035;-68
2022/05/09 05:17:45;;;;;;;21.55;10.57;;;9.90;99.90;;;;;;5091651;28;20028;-67
2022/05/09 05:20:13;;;;;;;25.13;11.10;;;10.00;99.90;;;;;;5091601;28;20035;-66
2022/05/09 05:22:41;;;;;;;23.10;11.02;;;10.10;99.90;;;;;;5073690;28;20020;-68
2022/05/09 05:25:09;;;;;;;23.00;11.57;;;10.20;99.90;;;;;;5073410;28;20034;-67
2022/05/09 05:27:34;;;;;;;21.90;10.48;;;10.30;99.90;;;;;;5073186;28;20036;-67
2022/05/09 05:30:00;;;;;;;28.90;14.45;;;10.40;99.90;;;;;;5091537;28;20035;-67
2022/05/09 05:32:34;;;;;;;18.40;10.43;;;10.50;99.90;;;;;;5091571;28;20059;-66
2022/05/09 05:35:00;;;;;;;21.00;11.20;;;10.60;99.90;;;;;;5091395;28;20024;-66
2022/05/09 05:37:26;;;;;;;24.42;12.38;;;10.70;99.90;;;;;;5091612;28;20028;-67
2022/05/09 05:39:52;;;;;;;23.02;11.45;;;10.80;99.90;;;;;;5072694;28;20084;-66
2022/05/09 05:42:19;;;;;;;24.08;11.20;;;10.80;99.90;;;;;;5091518;28;20016;-67
2022/05/09 05:44:47;;;;;;;22.30;10.98;;;10.90;99.90;;;;;;5091192;28;20024;-67
2022/05/09 05:47:14;;;;;;;79.17;56.60;;;11.00;99.90;;;;;;5091261;28;20024;-65
2022/05/09 05:49:41;;;;;;;23.88;13.38;;;11.10;99.90;;;;;;5072785;28;20270;-65
2022/05/09 05:52:07;;;;;;;20.08;10.63;;;11.10;99.90;;;;;;5091169;28;20020;-66
2022/05/09 05:54:36;;;;;;;22.98;10.82;;;11.10;99.90;;;;;;5090204;28;20028;-63
2022/05/09 05:57:04;;;;;;;23.67;12.55;;;11.20;99.90;;;;;;5090805;28;20032;-65
2022/05/09 05:59:30;;;;;;;21.58;10.70;;;11.30;99.90;;;;;;5089846;28;20103;-68
2022/05/09 06:01:55;;;;;;;23.52;13.13;;;11.30;99.90;;;;;;5052834;28;20067;-66
2022/05/09 06:04:21;;;;;;;22.50;11.30;;;11.40;99.90;;;;;;5071112;28;20532;-68
2022/05/09 06:06:47;;;;;;;23.55;11.52;;;11.50;99.90;;;;;;5073101;28;20449;-67
2022/05/09 06:09:13;;;;;;;22.83;11.10;;;11.50;99.90;;;;;;5087741;28;20034;-66
2022/05/09 06:11:40;;;;;;;22.83;11.27;;;11.60;99.90;;;;;;5094932;28;20473;-67
2022/05/09 06:14:07;;;;;;;21.38;11.02;;;11.60;99.90;;;;;;5076344;28;20032;-66
2022/05/09 06:16:33;;;;;;;23.80;10.88;;;11.70;99.90;;;;;;5094498;28;20022;-67
2022/05/09 06:19:00;;;;;;;20.60;10.82;;;11.80;99.90;;;;;;5094936;28;20077;-69
2022/05/09 06:21:26;;;;;;;21.95;11.00;;;11.90;99.90;;;;;;5076774;28;20031;-65
2022/05/09 06:23:52;;;;;;;19.75;10.77;;;12.00;99.90;;;;;;5076155;28;20028;-66
2022/05/09 06:26:18;;;;;;;19.92;10.77;;;12.10;99.90;;;;;;5070226;28;20253;-66
2022/05/09 06:28:43;;;;;;;23.15;11.02;;;12.10;99.90;;;;;;5089920;28;20400;-69
2022/05/09 06:31:09;;;;;;;22.60;10.95;;;12.20;99.90;;;;;;5088086;28;20445;-68
2022/05/09 06:33:35;;;;;;;22.08;11.05;;;12.30;99.90;;;;;;5070440;28;20308;-68
2022/05/09 06:36:01;;;;;;;21.30;10.95;;;12.40;99.90;;;;;;5086483;28;20012;-69
2022/05/09 06:38:27;;;;;;;22.20;11.50;;;12.40;99.90;;;;;;5084047;28;20027;-67
2022/05/09 06:40:54;;;;;;;20.52;10.77;;;12.40;99.90;;;;;;5082864;28;20028;-68
2022/05/09 06:43:22;;;;;;;22.25;11.63;;;12.50;99.90;;;;;;5082270;28;20103;-68
2022/05/09 06:45:47;;;;;;;25.67;11.88;;;12.60;99.90;;;;;;5065614;28;20511;-69
2022/05/09 06:48:13;;;;;;;24.48;11.68;;;12.60;99.90;;;;;;5085944;28;20037;-69
2022/05/09 06:50:39;;;;;;;24.95;11.45;;;12.70;99.90;;;;;;5065721;28;20036;-69
2022/05/09 06:53:06;;;;;;;23.85;12.05;;;12.80;99.90;;;;;;5078756;28;20031;-69
2022/05/09 06:55:31;;;;;;;24.17;11.98;;;12.90;99.90;;;;;;5084433;28;20032;-69
2022/05/09 06:57:57;;;;;;;24.42;11.80;;;13.00;99.90;;;;;;5083845;28;20556;-68
2022/05/09 07:00:24;;;;;;;25.58;12.32;;;13.10;99.90;;;;;;5082348;28;20021;-69
2022/05/09 07:02:51;;;;;;;38.15;24.40;;;13.20;99.90;;;;;;5063447;28;20089;-69
2022/05/09 07:05:19;;;;;;;41.60;25.33;;;13.30;99.90;;;;;;5079639;28;20431;-63
2022/05/09 07:07:46;;;;;;;222.10;148.02;;;13.40;99.90;;;;;;5056056;28;20074;-63
2022/05/09 07:10:13;;;;;;;32.60;20.30;;;13.60;99.90;;;;;;5073689;28;20028;-64
2022/05/09 07:12:44;;;;;;;25.63;11.75;;;13.60;99.90;;;;;;5075790;28;20082;-69
2022/05/09 07:15:12;;;;;;;23.15;12.02;;;13.60;99.90;;;;;;5083336;28;20111;-70
2022/05/09 07:17:38;;;;;;;22.52;10.85;;;13.70;99.90;;;;;;5083726;28;20032;-69
2022/05/09 07:20:05;;;;;;;23.58;11.50;;;13.70;99.90;;;;;;5088115;28;20079;-66
2022/05/09 07:22:30;;;;;;;25.88;12.70;;;13.80;99.90;;;;;;5074442;28;20078;-68
2022/05/09 07:24:56;;;;;;;24.75;11.65;;;13.90;99.90;;;;;;5086341;28;20422;-68
2022/05/09 07:27:21;;;;;;;22.35;11.35;;;14.00;99.90;;;;;;5093949;28;20430;-67
2022/05/09 07:29:47;;;;;;;23.58;11.30;;;14.10;99.90;;;;;;5093689;28;20028;-68
2022/05/09 07:32:13;;;;;;;23.50;11.98;;;14.10;99.90;;;;;;5093006;28;20478;-68
2022/05/09 07:34:38;;;;;;;22.38;11.90;;;14.20;99.90;;;;;;5057264;28;20030;-67
2022/05/09 07:37:04;;;;;;;21.17;11.30;;;14.30;99.90;;;;;;5085850;28;20025;-69
2022/05/09 07:39:30;;;;;;;19.83;11.40;;;14.30;99.90;;;;;;5090530;28;20095;-69
2022/05/09 07:41:57;;;;;;;19.80;12.93;;;14.40;99.90;;;;;;5081649;28;20048;-68
2022/05/09 07:44:23;;;;;;;27.17;14.63;;;14.50;99.90;;;;;;5076920;28;20377;-67
2022/05/09 07:46:48;;;;;;;22.33;12.93;;;14.60;99.90;;;;;;5094312;28;20031;-68
2022/05/09 07:49:14;;;;;;;32.95;15.05;;;14.80;99.90;;;;;;5065575;28;20021;-69
2022/05/09 07:51:40;;;;;;;21.00;13.48;;;14.80;99.90;;;;;;5085656;28;20031;-69
2022/05/09 07:54:07;;;;;;;25.10;13.10;;;14.90;99.90;;;;;;5082253;28;20031;-68
2022/05/09 07:56:32;;;;;;;20.88;11.90;;;15.00;99.90;;;;;;5062947;28;20028;-69
2022/05/09 07:58:59;;;;;;;26.58;14.25;;;15.00;99.90;;;;;;5084510;28;20040;-68
2022/05/09 08:01:25;;;;;;;22.80;13.38;;;15.20;99.90;;;;;;5083112;28;20028;-69
2022/05/09 08:03:51;;;;;;;24.17;14.00;;;15.20;99.90;;;;;;5061442;28;20024;-67
2022/05/09 08:06:16;;;;;;;23.08;11.70;;;15.30;99.90;;;;;;5083438;28;20089;-67
2022/05/09 08:08:43;;;;;;;26.13;13.98;;;15.40;99.90;;;;;;5054640;28;20546;-66
2022/05/09 08:11:11;;;;;;;22.00;12.38;;;15.40;99.90;;;;;;5054388;28;20029;-66
2022/05/09 08:13:39;;;;;;;28.73;14.35;;;15.50;99.90;;;;;;5072598;28;20031;-66
2022/05/09 08:16:06;;;;;;;22.50;12.82;;;15.50;99.90;;;;;;5076204;28;20024;-66
2022/05/09 08:18:32;;;;;;;23.48;12.32;;;15.70;99.90;;;;;;5092878;28;20031;-66
2022/05/09 08:21:01;;;;;;;25.42;12.95;;;15.80;99.90;;;;;;5074005;28;20115;-66
2022/05/09 08:23:28;;;;;;;21.75;12.70;;;15.90;99.90;;;;;;5074529;28;20133;-66
2022/05/09 08:25:56;;;;;;;21.50;12.98;;;16.10;99.90;;;;;;5092604;28;20122;-64
2022/05/09 08:28:22;;;;;;;26.65;12.60;;;16.30;99.90;;;;;;5091714;28;20404;-65
2022/05/09 08:30:49;;;;;;;29.80;12.82;;;16.30;99.90;;;;;;5092078;28;20036;-65
2022/05/09 08:33:21;;;;;;;22.05;11.73;;;16.40;99.90;;;;;;5092264;28;20024;-66
2022/05/09 08:35:49;;;;;;;22.83;12.30;;;16.50;99.90;;;;;;5074003;28;20541;-65
2022/05/09 08:38:15;;;;;;;28.75;13.52;;;16.60;99.70;;;;;;5092280;28;20024;-65
2022/05/09 08:40:57;;;;;;;22.15;12.70;;;16.80;99.60;;;;;;5092097;28;20125;-62
2022/05/09 08:43:50;;;;;;;25.65;12.35;;;16.90;99.60;;;;;;5092362;28;20012;-63
2022/05/09 08:46:43;;;;;;;25.30;12.30;;;17.00;99.20;;;;;;5074025;28;20027;-64
2022/05/09 08:49:24;;;;;;;20.40;12.18;;;17.20;98.90;;;;;;5091931;28;20119;-66
2022/05/09 08:52:07;;;;;;;29.63;18.17;;;17.40;98.60;;;;;;5056953;28;20028;-67
2022/05/09 08:54:34;;;;;;;26.58;14.13;;;17.40;97.90;;;;;;5072078;28;20107;-60
2022/05/09 08:57:04;;;;;;;21.05;12.25;;;17.60;98.40;;;;;;5071894;28;20362;-58
2022/05/09 09:00:00;;;;;;;24.45;12.75;;;17.70;97.70;;;;;;5071795;28;20051;-62
2022/05/09 09:02:38;;;;;;;21.85;12.30;;;17.90;98.10;;;;;;5071863;28;20050;-59
2022/05/09 09:05:04;;;;;;;19.98;12.32;;;18.00;97.80;;;;;;5071643;28;20392;-58
2022/05/09 09:07:34;;;;;;;24.80;13.02;;;18.10;97.70;;;;;;5071811;28;20468;-61
2022/05/09 09:11:08;;;;;;;20.63;11.38;;;18.30;96.90;;;;;;5071563;28;20048;-61
2022/05/09 09:13:44;;;;;;;22.95;12.98;;;18.60;97.00;;;;;;4948225;28;20034;-59
2022/05/09 09:16:39;;;;;;;20.25;12.13;;;18.60;95.50;;;;;;5070539;28;20052;-59
2022/05/09 09:20:09;;;;;;;19.83;12.02;;;18.60;95.60;;;;;;5090036;28;20448;-60
2022/05/09 09:23:02;;;;;;;24.77;12.07;;;18.90;96.20;;;;;;5009421;28;20033;-59
2022/05/09 09:25:59;;;;;;;22.80;12.18;;;19.10;95.80;;;;;;5009735;28;20091;-60
2022/05/09 09:28:47;;;;;;;20.65;12.48;;;19.20;95.10;;;;;;5075050;28;20050;-62
2022/05/09 09:31:18;;;;;;;21.30;12.40;;;19.30;94.90;;;;;;5091065;28;20058;-62
2022/05/09 09:33:57;;;;;;;19.08;12.13;;;19.20;94.20;;;;;;5091645;28;20640;-63
2022/05/09 09:36:32;;;;;;;23.60;13.18;;;19.30;94.20;;;;;;5086532;28;20016;-63
2022/05/09 09:39:08;;;;;;;21.48;12.48;;;19.30;93.70;;;;;;5080716;28;20020;-64
2022/05/09 09:41:36;;;;;;;18.63;12.02;;;19.50;93.80;;;;;;5064310;28;20025;-61
2022/05/09 09:44:08;;;;;;;19.98;12.13;;;19.80;94.10;;;;;;5084714;28;20016;-65
2022/05/09 09:46:34;;;;;;;19.20;12.25;;;19.90;93.80;;;;;;5084210;28;20036;-63
2022/05/09 09:49:09;;;;;;;17.30;11.40;;;19.60;93.10;;;;;;5084937;28;20054;-61
2022/05/09 09:51:48;;;;;;;20.13;11.80;;;19.80;92.80;;;;;;5084418;28;20481;-61
2022/05/09 09:54:22;;;;;;;21.83;12.65;;;20.10;92.90;;;;;;5084242;28;20357;-61
2022/05/09 09:56:48;;;;;;;20.63;12.18;;;20.10;92.10;;;;;;5083921;28;20052;-63
2022/05/09 09:59:13;;;;;;;21.13;12.35;;;20.10;93.00;;;;;;5068236;28;20121;-62
2022/05/09 10:01:39;;;;;;;19.33;12.18;;;20.10;91.90;;;;;;5084981;28;20028;-61
2022/05/09 10:04:11;;;;;;;18.73;12.35;;;20.10;91.80;;;;;;5067182;28;20168;-61
2022/05/09 10:07:05;;;;;;;19.17;11.70;;;20.30;91.70;;;;;;5084375;28;20459;-63
2022/05/09 10:09:44;;;;;;;21.15;11.80;;;20.40;92.20;;;;;;5085698;28;20024;-61
2022/05/09 10:12:18;;;;;;;;;;;20.80;91.50;;;;;;5083594;28;20093;-61
2022/05/09 10:14:44;;;;;;;17.80;10.85;;;20.60;90.80;;;;;;5087226;28;19916;-61
2022/05/09 10:17:27;;;;;;;19.23;11.93;;;21.00;90.30;;;;;;5066925;28;20027;-63
2022/05/09 10:19:55;;;;;;;18.50;11.65;;;21.40;90.40;;;;;;5074834;28;20024;-57
2022/05/09 10:25:37;;;;;;;20.58;12.10;;;21.70;90.20;;;;;;5094763;28;20051;-61
2022/05/09 10:28:16;;;;;;;23.00;13.02;;;21.90;89.20;;;;;;5094547;28;20488;-60
2022/05/09 10:31:01;;;;;;;18.27;12.40;;;21.90;89.40;;;;;;5082389;28;20043;-62
2022/05/09 10:33:31;;;;;;;20.85;11.70;;;21.80;86.90;;;;;;5074771;28;20025;-60
2022/05/09 10:36:02;;;;;;;17.30;12.25;;;21.60;86.50;;;;;;5074169;28;20020;-61
2022/05/09 10:38:46;;;;;;;20.73;11.93;;;21.50;86.90;;;;;;5079724;28;20138;-63
2022/05/09 10:41:37;;;;;;;19.10;11.95;;;21.70;87.90;;;;;;5074378;28;20024;-58
2022/05/09 10:44:27;;;;;;;19.98;11.02;;;21.50;86.60;;;;;;5082922;28;20115;-61
2022/05/09 10:46:59;;;;;;;19.20;11.60;;;21.40;88.60;;;;;;5082222;28;20411;-63
2022/05/09 10:49:36;;;;;;;17.92;10.85;;;21.50;86.90;;;;;;5094309;28;20035;-60
2022/05/09 10:52:39;;;;;;;18.50;11.00;;;21.70;85.80;;;;;;5075790;28;20031;-63
2022/05/09 10:55:33;;;;;;;22.02;11.15;;;21.80;86.40;;;;;;5094353;28;20036;-63
2022/05/09 10:58:08;;;;;;;17.20;10.68;;;22.30;87.80;;;;;;5094281;28;20024;-64
2022/05/09 11:00:41;;;;;;;19.45;11.30;;;22.60;85.00;;;;;;5094038;28;20468;-63
2022/05/09 11:03:15;;;;;;;18.88;11.43;;;22.60;84.20;;;;;;5076116;28;20115;-61
2022/05/09 11:06:04;;;;;;;16.92;10.88;;;22.90;84.70;;;;;;5094127;28;20053;-61
2022/05/09 11:08:36;;;;;;;18.27;11.45;;;23.00;82.80;;;;;;5094092;28;20447;-62
2022/05/09 11:11:32;;;;;;;20.33;11.80;;;23.50;82.80;;;;;;5094162;28;20032;-61
2022/05/09 11:14:28;;;;;;;20.77;12.48;;;24.20;82.30;;;;;;5094031;28;20365;-60
2022/05/09 11:17:18;;;;;;;19.67;12.45;;;24.70;80.00;;;;;;5075406;28;20028;-60
2022/05/09 11:20:09;;;;;;;19.02;12.10;;;26.10;77.80;;;;;;5073475;28;20365;-63
2022/05/09 11:23:08;;;;;;;16.95;11.52;;;27.10;74.80;;;;;;5089618;28;20028;-63
2022/05/09 11:26:06;;;;;;;21.13;11.90;;;26.60;74.20;;;;;;5076210;28;20024;-70
2022/05/09 11:28:50;;;;;;;;;;;27.60;72.30;;;;;;5090011;28;20032;-73
2022/05/09 11:31:34;;;;;;;18.77;12.18;;;28.30;72.50;;;;;;5055963;28;20011;-70
2022/05/09 11:34:29;;;;;;;23.48;12.40;;;28.70;67.90;;;;;;5056165;28;20063;-71
2022/05/09 11:37:13;;;;;;;18.30;12.60;;;28.80;67.10;;;;;;5042775;28;20500;-71
2022/05/09 11:40:05;;;;;;;18.73;12.73;;;28.90;66.70;;;;;;5055825;28;20564;-70
2022/05/09 11:43:29;;;;;;;19.40;12.23;;;29.70;64.80;;;;;;5073926;28;20432;-70
2022/05/09 11:46:00;;;;;;;19.45;12.27;;;29.60;63.90;;;;;;5073787;28;20020;-70
2022/05/09 11:48:50;;;;;;;18.08;11.93;;;28.60;63.50;;;;;;5073924;28;20504;-70
2022/05/09 11:51:48;;;;;;;19.95;12.30;;;29.10;63.30;;;;;;5073618;28;20502;-70
2022/05/09 11:54:24;;;;;;;19.88;12.30;;;29.50;63.10;;;;;;5055033;28;20464;-72
2022/05/09 11:56:56;;;;;;;18.65;13.05;;;30.70;61.60;;;;;;5073580;28;20021;-70
2022/05/09 11:59:25;;;;;;;16.80;13.10;;;30.90;62.00;;;;;;5073406;28;20027;-71
2022/05/09 12:02:12;;;;;;;19.63;12.55;;;31.90;59.30;;;;;;5073787;28;20449;-74
2022/05/09 12:04:47;;;;;;;18.25;12.70;;;31.40;58.40;;;;;;5077247;28;20444;-71
2022/05/09 12:07:28;;;;;;;17.00;12.57;;;31.20;58.00;;;;;;5082311;28;20161;-71
2022/05/09 12:10:01;;;;;;;19.38;12.60;;;29.80;59.00;;;;;;5082023;28;20040;-72
2022/05/09 12:12:41;;;;;;;19.30;13.48;;;30.20;58.70;;;;;;5081099;28;20020;-71
2022/05/09 12:15:16;;;;;;;17.88;13.23;;;29.70;58.70;;;;;;5083985;28;20046;-72
2022/05/09 12:17:44;;;;;;;17.48;12.85;;;29.40;59.70;;;;;;5066335;28;20054;-72
2022/05/09 12:20:38;;;;;;;18.30;12.63;;;29.80;59.30;;;;;;5083389;28;20025;-70
2022/05/09 12:23:32;;;;;;;17.88;12.68;;;30.00;58.30;;;;;;5054718;28;20578;-71
2022/05/09 12:26:06;;;;;;;18.73;13.40;;;28.80;59.50;;;;;;5072601;28;20024;-70
2022/05/09 12:28:39;;;;;;;19.23;12.88;;;28.90;59.40;;;;;;5075198;22;20173;-65
2022/05/09 12:31:30;;;;;;;19.25;13.48;;;30.00;58.20;;;;;;5071055;28;20028;-65
2022/05/09 12:33:56;;;;;;;16.98;13.10;;;31.20;58.10;;;;;;5053171;28;20393;-65
2022/05/09 12:36:24;;;;;;;18.02;13.20;;;32.30;56.50;;;;;;5072011;28;20024;-65
2022/05/09 12:38:53;;;;;;;18.83;13.50;;;31.50;55.90;;;;;;5070816;28;20031;-65
2022/05/09 12:41:42;;;;;;;18.95;13.60;;;32.40;55.10;;;;;;5070182;28;20020;-65
2022/05/09 12:44:23;;;;;;;17.17;13.20;;;31.90;54.00;;;;;;5070111;28;20028;-65
2022/05/09 12:46:55;;;;;;;17.27;13.27;;;32.20;54.00;;;;;;4707353;28;10000405;-67
2022/05/09 12:49:25;;;;;;;20.98;13.00;;;31.50;54.00;;;;;;5065644;28;20104;-65
2022/05/09 12:51:55;;;;;;;17.98;13.18;;;30.90;54.20;;;;;;5030507;28;20109;-65
2022/05/09 12:54:24;;;;;;;17.35;12.77;;;30.40;54.60;;;;;;5071233;28;20052;-64
2022/05/09 12:56:53;;;;;;;21.38;13.60;;;31.10;55.10;;;;;;5077323;28;20043;-66
2022/05/09 12:59:21;;;;;;;17.45;13.40;;;30.50;54.50;;;;;;5067720;28;20009;-64
2022/05/09 13:01:55;;;;;;;19.38;13.35;;;30.70;54.70;;;;;;5051239;28;20059;-64
2022/05/09 13:04:23;;;;;;;19.60;13.32;;;31.20;53.90;;;;;;5049843;28;20404;-64
2022/05/09 13:06:52;;;;;;;19.92;13.30;;;31.10;54.50;;;;;;5081755;28;20024;-66
2022/05/09 13:09:24;;;;;;;18.30;13.20;;;32.50;54.00;;;;;;5086652;28;20063;-65